sensor_id;sensor_type;location;lat;lon;timestamp;pressure;altitude;pressure_sealevel;temperature;humidity
23223;BME280;11780;13.904;100.620;2022-10-16T00:02:26;101124.72;;;28.35;56.66
23223;BME280;11780;13.904;100.620;2022-10-16T00:04:56;101126.66;;;28.35;56.47
23223;BME280;11780;13.904;100.620;2022-10-16T00:09:54;101137.47;;;28.31;56.82
23223;BME280;11780;13.904;100.620;2022-10-16T00:12:25;101136.31;;;28.13;57.00
23223;BME280;11780;13.904;100.620;2022-10-16T00:14:56;101145.03;;;27.72;57.87
23223;BME280;11780;13.904;100.620;2022-10-16T00:17:27;101158.72;;;27.77;57.81
23223;BME280;11780;13.904;100.620;2022-10-16T00:19:58;101153.59;;;27.35;58.86
23223;BME280;11780;13.904;100.620;2022-10-16T00:22:29;101161.19;;;27.49;58.55
23223;BME280;11780;13.904;100.620;2022-10-16T00:24:59;101158.34;;;27.59;58.62
23223;BME280;11780;13.904;100.620;2022-10-16T00:27:30;101171.03;;;27.55;58.72
23223;BME280;11780;13.904;100.620;2022-10-16T00:30:02;101174.97;;;27.44;59.11
23223;BME280;11780;13.904;100.620;2022-10-16T00:32:33;101176.00;;;27.53;59.19
23223;BME280;11780;13.904;100.620;2022-10-16T00:35:04;101186.84;;;27.34;59.62
23223;BME280;11780;13.904;100.620;2022-10-16T00:37:35;101189.25;;;27.46;59.45
23223;BME280;11780;13.904;100.620;2022-10-16T00:40:06;101197.00;;;27.33;59.87
23223;BME280;11780;13.904;100.620;2022-10-16T00:42:38;101194.81;;;27.35;60.18
23223;BME280;11780;13.904;100.620;2022-10-16T00:45:09;101215.84;;;27.16;60.12
23223;BME280;11780;13.904;100.620;2022-10-16T00:47:43;101216.06;;;27.25;60.98
23223;BME280;11780;13.904;100.620;2022-10-16T00:52:55;101233.16;;;27.11;61.30
23223;BME280;11780;13.904;100.620;2022-10-16T00:55:27;101237.28;;;27.14;61.67
23223;BME280;11780;13.904;100.620;2022-10-16T00:58:03;101242.81;;;27.09;61.89
23223;BME280;11780;13.904;100.620;2022-10-16T01:00:33;101248.81;;;27.16;61.88
23223;BME280;11780;13.904;100.620;2022-10-16T01:03:29;101254.25;;;27.21;62.47
23223;BME280;11780;13.904;100.620;2022-10-16T01:06:29;101255.25;;;26.96;63.05
23223;BME280;11780;13.904;100.620;2022-10-16T01:09:21;101257.63;;;27.08;62.56
23223;BME280;11780;13.904;100.620;2022-10-16T01:12:09;101273.34;;;26.97;63.21
23223;BME280;11780;13.904;100.620;2022-10-16T01:20:20;101281.50;;;27.12;63.43
23223;BME280;11780;13.904;100.620;2022-10-16T01:28:30;101287.25;;;27.16;63.53
23223;BME280;11780;13.904;100.620;2022-10-16T01:31:03;101288.91;;;27.17;63.36
23223;BME280;11780;13.904;100.620;2022-10-16T01:33:44;101281.44;;;27.23;63.55
23223;BME280;11780;13.904;100.620;2022-10-16T01:36:17;101282.81;;;27.20;63.47
23223;BME280;11780;13.904;100.620;2022-10-16T01:38:53;101290.47;;;27.28;63.43
23223;BME280;11780;13.904;100.620;2022-10-16T01:41:32;101293.22;;;27.28;63.14
23223;BME280;11780;13.904;100.620;2022-10-16T01:44:17;101293.69;;;27.35;62.89
23223;BME280;11780;13.904;100.620;2022-10-16T01:46:51;101299.28;;;27.20;63.27
23223;BME280;11780;13.904;100.620;2022-10-16T01:49:26;101303.75;;;27.11;63.50
23223;BME280;11780;13.904;100.620;2022-10-16T01:52:02;101303.53;;;27.02;63.26
23223;BME280;11780;13.904;100.620;2022-10-16T01:54:35;101301.88;;;27.06;63.16
23223;BME280;11780;13.904;100.620;2022-10-16T01:57:10;101310.91;;;27.12;62.85
23223;BME280;11780;13.904;100.620;2022-10-16T01:59:47;101317.19;;;27.12;62.43
23223;BME280;11780;13.904;100.620;2022-10-16T02:02:20;101318.69;;;26.89;61.88
23223;BME280;11780;13.904;100.620;2022-10-16T02:05:05;101323.84;;;27.06;61.88
23223;BME280;11780;13.904;100.620;2022-10-16T02:07:40;101333.44;;;27.03;61.91
23223;BME280;11780;13.904;100.620;2022-10-16T02:10:14;101335.06;;;27.15;62.10
23223;BME280;11780;13.904;100.620;2022-10-16T02:12:53;101338.94;;;27.03;61.98
23223;BME280;11780;13.904;100.620;2022-10-16T02:15:26;101334.78;;;27.11;61.42
23223;BME280;11780;13.904;100.620;2022-10-16T02:17:57;101337.56;;;27.06;61.44
23223;BME280;11780;13.904;100.620;2022-10-16T02:20:34;101341.91;;;27.12;61.15
23223;BME280;11780;13.904;100.620;2022-10-16T02:23:12;101349.31;;;27.17;61.36
23223;BME280;11780;13.904;100.620;2022-10-16T02:25:47;101338.38;;;27.07;60.94
23223;BME280;11780;13.904;100.620;2022-10-16T02:28:27;101346.91;;;27.05;61.19
23223;BME280;11780;13.904;100.620;2022-10-16T02:31:03;101352.22;;;26.86;61.05
23223;BME280;11780;13.904;100.620;2022-10-16T02:33:37;101351.06;;;26.97;61.41
23223;BME280;11780;13.904;100.620;2022-10-16T02:36:10;101348.31;;;26.97;61.35
23223;BME280;11780;13.904;100.620;2022-10-16T02:38:41;101354.63;;;26.98;61.49
23223;BME280;11780;13.904;100.620;2022-10-16T02:41:12;101360.91;;;27.03;61.00
23223;BME280;11780;13.904;100.620;2022-10-16T02:43:44;101351.03;;;27.02;60.97
23223;BME280;11780;13.904;100.620;2022-10-16T02:46:17;101354.63;;;26.98;61.04
23223;BME280;11780;13.904;100.620;2022-10-16T02:48:48;101356.88;;;26.90;61.47
23223;BME280;11780;13.904;100.620;2022-10-16T02:51:19;101346.66;;;27.01;61.26
23223;BME280;11780;13.904;100.620;2022-10-16T02:53:49;101357.66;;;26.91;61.60
23223;BME280;11780;13.904;100.620;2022-10-16T02:56:20;101355.72;;;26.97;61.42
23223;BME280;11780;13.904;100.620;2022-10-16T02:58:51;101357.66;;;26.91;61.66
23223;BME280;11780;13.904;100.620;2022-10-16T03:01:23;101354.97;;;26.86;61.96
23223;BME280;11780;13.904;100.620;2022-10-16T03:03:55;101359.63;;;26.85;61.94
23223;BME280;11780;13.904;100.620;2022-10-16T03:06:26;101361.50;;;26.90;62.03
23223;BME280;11780;13.904;100.620;2022-10-16T03:08:57;101356.59;;;26.87;61.98
23223;BME280;11780;13.904;100.620;2022-10-16T03:11:28;101357.38;;;26.98;62.07
23223;BME280;11780;13.904;100.620;2022-10-16T03:13:59;101351.56;;;27.04;62.17
23223;BME280;11780;13.904;100.620;2022-10-16T03:16:30;101360.09;;;27.08;61.87
23223;BME280;11780;13.904;100.620;2022-10-16T03:19:01;101351.00;;;27.08;62.17
23223;BME280;11780;13.904;100.620;2022-10-16T03:21:31;101354.41;;;26.73;62.45
23223;BME280;11780;13.904;100.620;2022-10-16T03:24:03;101354.38;;;26.94;62.86
23223;BME280;11780;13.904;100.620;2022-10-16T03:26:33;101350.53;;;26.90;62.52
23223;BME280;11780;13.904;100.620;2022-10-16T03:29:04;101343.44;;;26.73;63.12
23223;BME280;11780;13.904;100.620;2022-10-16T03:31:35;101346.13;;;26.94;63.08
23223;BME280;11780;13.904;100.620;2022-10-16T03:34:06;101344.78;;;26.92;63.15
23223;BME280;11780;13.904;100.620;2022-10-16T03:36:37;101351.38;;;26.90;63.13
23223;BME280;11780;13.904;100.620;2022-10-16T03:39:08;101346.44;;;26.93;63.14
23223;BME280;11780;13.904;100.620;2022-10-16T03:41:39;101344.19;;;26.95;63.11
23223;BME280;11780;13.904;100.620;2022-10-16T03:44:10;101344.72;;;27.02;63.11
23223;BME280;11780;13.904;100.620;2022-10-16T03:46:41;101348.28;;;27.02;63.05
23223;BME280;11780;13.904;100.620;2022-10-16T03:49:12;101354.44;;;26.84;63.26
23223;BME280;11780;13.904;100.620;2022-10-16T03:51:43;101354.69;;;26.77;63.38
23223;BME280;11780;13.904;100.620;2022-10-16T03:54:14;101365.94;;;26.86;63.56
23223;BME280;11780;13.904;100.620;2022-10-16T03:56:45;101358.81;;;26.85;63.48
23223;BME280;11780;13.904;100.620;2022-10-16T03:59:16;101348.09;;;26.78;64.18
23223;BME280;11780;13.904;100.620;2022-10-16T04:01:47;101351.41;;;26.80;64.17
23223;BME280;11780;13.904;100.620;2022-10-16T04:04:18;101354.97;;;26.86;63.93
23223;BME280;11780;13.904;100.620;2022-10-16T04:06:48;101351.72;;;26.63;64.01
23223;BME280;11780;13.904;100.620;2022-10-16T04:09:19;101341.25;;;26.86;64.04
23223;BME280;11780;13.904;100.620;2022-10-16T04:11:50;101331.84;;;26.97;63.84
23223;BME280;11780;13.904;100.620;2022-10-16T04:14:20;101330.44;;;27.00;63.51
23223;BME280;11780;13.904;100.620;2022-10-16T04:16:51;101326.44;;;26.82;63.70
23223;BME280;11780;13.904;100.620;2022-10-16T04:19:22;101320.94;;;26.82;63.79
23223;BME280;11780;13.904;100.620;2022-10-16T04:21:54;101312.63;;;26.97;63.51
23223;BME280;11780;13.904;100.620;2022-10-16T04:24:25;101310.09;;;27.06;63.52
23223;BME280;11780;13.904;100.620;2022-10-16T04:26:55;101307.06;;;27.08;63.51
23223;BME280;11780;13.904;100.620;2022-10-16T04:29:27;101307.69;;;26.94;63.62
23223;BME280;11780;13.904;100.620;2022-10-16T04:31:58;101306.50;;;27.11;63.35
23223;BME280;11780;13.904;100.620;2022-10-16T04:34:29;101304.72;;;26.80;63.60
23223;BME280;11780;13.904;100.620;2022-10-16T04:37:00;101302.31;;;26.68;63.65
23223;BME280;11780;13.904;100.620;2022-10-16T04:39:31;101306.16;;;26.62;63.72
23223;BME280;11780;13.904;100.620;2022-10-16T04:42:02;101294.56;;;26.75;63.92
23223;BME280;11780;13.904;100.620;2022-10-16T04:44:33;101297.63;;;26.69;63.90
23223;BME280;11780;13.904;100.620;2022-10-16T04:47:03;101292.94;;;26.74;64.25
23223;BME280;11780;13.904;100.620;2022-10-16T04:49:34;101299.78;;;26.82;64.12
23223;BME280;11780;13.904;100.620;2022-10-16T04:52:05;101288.81;;;26.77;64.02
23223;BME280;11780;13.904;100.620;2022-10-16T04:54:36;101286.69;;;26.58;64.45
23223;BME280;11780;13.904;100.620;2022-10-16T04:57:07;101287.44;;;26.74;64.78
23223;BME280;11780;13.904;100.620;2022-10-16T04:59:38;101284.09;;;26.88;64.62
23223;BME280;11780;13.904;100.620;2022-10-16T05:02:09;101280.00;;;26.90;64.79
23223;BME280;11780;13.904;100.620;2022-10-16T05:04:40;101276.88;;;27.02;64.37
23223;BME280;11780;13.904;100.620;2022-10-16T05:07:10;101274.44;;;27.01;64.66
23223;BME280;11780;13.904;100.620;2022-10-16T05:09:41;101272.81;;;26.95;64.90
23223;BME280;11780;13.904;100.620;2022-10-16T05:12:12;101261.50;;;27.07;64.62
23223;BME280;11780;13.904;100.620;2022-10-16T05:14:43;101263.69;;;27.04;64.71
23223;BME280;11780;13.904;100.620;2022-10-16T05:17:14;101259.00;;;27.10;64.43
23223;BME280;11780;13.904;100.620;2022-10-16T05:19:45;101254.44;;;26.95;64.65
23223;BME280;11780;13.904;100.620;2022-10-16T05:22:15;101250.69;;;26.81;65.09
23223;BME280;11780;13.904;100.620;2022-10-16T05:24:46;101247.81;;;27.01;65.25
23223;BME280;11780;13.904;100.620;2022-10-16T05:27:17;101256.84;;;27.02;64.88
23223;BME280;11780;13.904;100.620;2022-10-16T05:29:51;101243.16;;;26.97;64.52
23223;BME280;11780;13.904;100.620;2022-10-16T05:32:22;101237.88;;;27.05;64.79
23223;BME280;11780;13.904;100.620;2022-10-16T05:34:53;101238.63;;;27.16;64.31
23223;BME280;11780;13.904;100.620;2022-10-16T05:37:24;101225.84;;;27.01;64.49
23223;BME280;11780;13.904;100.620;2022-10-16T05:39:55;101223.63;;;27.03;64.57
23223;BME280;11780;13.904;100.620;2022-10-16T05:42:26;101226.44;;;26.93;64.53
23223;BME280;11780;13.904;100.620;2022-10-16T05:44:57;101215.69;;;26.97;64.48
23223;BME280;11780;13.904;100.620;2022-10-16T05:47:28;101217.03;;;27.04;64.27
23223;BME280;11780;13.904;100.620;2022-10-16T05:49:58;101215.69;;;27.02;63.57
23223;BME280;11780;13.904;100.620;2022-10-16T05:52:29;101206.31;;;27.08;63.56
23223;BME280;11780;13.904;100.620;2022-10-16T05:55:02;101208.75;;;27.10;64.10
23223;BME280;11780;13.904;100.620;2022-10-16T05:57:32;101205.50;;;27.02;63.72
23223;BME280;11780;13.904;100.620;2022-10-16T06:00:04;101200.31;;;26.96;63.40
23223;BME280;11780;13.904;100.620;2022-10-16T06:02:41;101195.16;;;26.89;63.26
23223;BME280;11780;13.904;100.620;2022-10-16T06:05:12;101188.78;;;26.99;63.36
23223;BME280;11780;13.904;100.620;2022-10-16T06:07:43;101189.63;;;26.99;63.29
23223;BME280;11780;13.904;100.620;2022-10-16T06:10:13;101178.63;;;26.99;63.35
23223;BME280;11780;13.904;100.620;2022-10-16T06:12:44;101177.56;;;26.95;63.09
23223;BME280;11780;13.904;100.620;2022-10-16T06:15:15;101170.63;;;27.03;63.06
23223;BME280;11780;13.904;100.620;2022-10-16T06:17:46;101176.53;;;26.86;63.30
23223;BME280;11780;13.904;100.620;2022-10-16T06:20:16;101166.91;;;26.88;63.25
23223;BME280;11780;13.904;100.620;2022-10-16T06:22:47;101165.47;;;26.96;63.47
23223;BME280;11780;13.904;100.620;2022-10-16T06:25:18;101167.06;;;27.02;63.17
23223;BME280;11780;13.904;100.620;2022-10-16T06:27:49;101151.75;;;26.96;63.57
23223;BME280;11780;13.904;100.620;2022-10-16T06:30:20;101156.19;;;26.87;63.67
23223;BME280;11780;13.904;100.620;2022-10-16T06:32:50;101148.53;;;26.79;64.30
23223;BME280;11780;13.904;100.620;2022-10-16T06:35:21;101138.59;;;26.93;64.00
23223;BME280;11780;13.904;100.620;2022-10-16T06:37:55;101147.66;;;26.94;64.10
23223;BME280;11780;13.904;100.620;2022-10-16T06:40:26;101136.91;;;26.97;63.93
23223;BME280;11780;13.904;100.620;2022-10-16T06:42:57;101128.38;;;26.99;63.47
23223;BME280;11780;13.904;100.620;2022-10-16T06:45:28;101123.38;;;27.06;63.69
23223;BME280;11780;13.904;100.620;2022-10-16T06:47:59;101120.44;;;26.97;63.76
23223;BME280;11780;13.904;100.620;2022-10-16T06:50:30;101117.25;;;26.85;64.10
23223;BME280;11780;13.904;100.620;2022-10-16T06:53:01;101113.53;;;27.00;63.78
23223;BME280;11780;13.904;100.620;2022-10-16T06:55:32;101110.78;;;27.05;63.40
23223;BME280;11780;13.904;100.620;2022-10-16T06:58:03;101109.91;;;27.10;63.40
23223;BME280;11780;13.904;100.620;2022-10-16T07:00:34;101111.19;;;27.17;63.52
23223;BME280;11780;13.904;100.620;2022-10-16T07:03:05;101101.56;;;27.20;63.33
23223;BME280;11780;13.904;100.620;2022-10-16T07:05:41;101103.13;;;26.97;63.22
23223;BME280;11780;13.904;100.620;2022-10-16T07:08:12;101093.31;;;27.20;63.35
23223;BME280;11780;13.904;100.620;2022-10-16T07:10:43;101093.38;;;27.15;63.33
23223;BME280;11780;13.904;100.620;2022-10-16T07:13:14;101091.16;;;27.17;63.08
23223;BME280;11780;13.904;100.620;2022-10-16T07:15:45;101090.03;;;27.18;63.45
23223;BME280;11780;13.904;100.620;2022-10-16T07:18:16;101081.56;;;27.14;63.37
23223;BME280;11780;13.904;100.620;2022-10-16T07:20:46;101077.00;;;27.04;63.26
23223;BME280;11780;13.904;100.620;2022-10-16T07:23:17;101080.59;;;27.00;63.53
23223;BME280;11780;13.904;100.620;2022-10-16T07:25:58;101076.44;;;27.02;63.66
23223;BME280;11780;13.904;100.620;2022-10-16T07:28:29;101070.47;;;27.00;63.85
23223;BME280;11780;13.904;100.620;2022-10-16T07:31:05;101071.41;;;27.15;63.91
23223;BME280;11780;13.904;100.620;2022-10-16T07:33:37;101062.53;;;27.23;64.46
23223;BME280;11780;13.904;100.620;2022-10-16T07:36:08;101064.69;;;27.26;64.75
23223;BME280;11780;13.904;100.620;2022-10-16T07:38:43;101064.13;;;27.29;64.72
23223;BME280;11780;13.904;100.620;2022-10-16T07:41:17;101064.75;;;27.21;64.77
23223;BME280;11780;13.904;100.620;2022-10-16T07:43:50;101059.81;;;27.18;64.96
23223;BME280;11780;13.904;100.620;2022-10-16T07:46:22;101055.97;;;27.19;64.89
23223;BME280;11780;13.904;100.620;2022-10-16T07:48:53;101056.22;;;27.23;64.90
23223;BME280;11780;13.904;100.620;2022-10-16T07:51:25;101046.63;;;27.20;65.05
23223;BME280;11780;13.904;100.620;2022-10-16T07:53:56;101043.31;;;27.23;64.71
23223;BME280;11780;13.904;100.620;2022-10-16T07:56:27;101046.53;;;27.30;64.66
23223;BME280;11780;13.904;100.620;2022-10-16T07:58:58;101048.91;;;27.13;64.54
23223;BME280;11780;13.904;100.620;2022-10-16T08:01:29;101038.91;;;27.22;64.53
23223;BME280;11780;13.904;100.620;2022-10-16T08:04:00;101043.78;;;27.30;64.06
23223;BME280;11780;13.904;100.620;2022-10-16T08:06:37;101039.97;;;27.26;63.86
23223;BME280;11780;13.904;100.620;2022-10-16T08:09:08;101042.50;;;27.23;64.05
23223;BME280;11780;13.904;100.620;2022-10-16T08:11:39;101044.63;;;27.26;64.10
23223;BME280;11780;13.904;100.620;2022-10-16T08:14:10;101038.56;;;27.29;63.85
23223;BME280;11780;13.904;100.620;2022-10-16T08:16:41;101036.00;;;27.38;63.53
23223;BME280;11780;13.904;100.620;2022-10-16T08:19:12;101030.06;;;27.30;63.63
23223;BME280;11780;13.904;100.620;2022-10-16T08:21:46;101028.34;;;27.34;63.61
23223;BME280;11780;13.904;100.620;2022-10-16T08:24:17;101023.47;;;27.31;63.58
23223;BME280;11780;13.904;100.620;2022-10-16T08:26:47;101035.09;;;27.18;63.50
23223;BME280;11780;13.904;100.620;2022-10-16T08:29:18;101021.88;;;27.25;63.56
23223;BME280;11780;13.904;100.620;2022-10-16T08:31:49;101023.63;;;27.16;63.56
23223;BME280;11780;13.904;100.620;2022-10-16T08:34:20;101029.34;;;27.19;63.72
23223;BME280;11780;13.904;100.620;2022-10-16T08:36:53;101018.81;;;27.27;63.67
23223;BME280;11780;13.904;100.620;2022-10-16T08:39:25;101021.28;;;27.28;63.39
23223;BME280;11780;13.904;100.620;2022-10-16T08:47:22;101020.00;;;27.20;63.44
23223;BME280;11780;13.904;100.620;2022-10-16T08:50:01;101019.78;;;27.17;63.39
23223;BME280;11780;13.904;100.620;2022-10-16T08:52:35;101021.34;;;27.23;63.74
23223;BME280;11780;13.904;100.620;2022-10-16T08:55:08;101022.63;;;27.31;63.55
23223;BME280;11780;13.904;100.620;2022-10-16T08:57:47;101019.53;;;27.38;63.27
23223;BME280;11780;13.904;100.620;2022-10-16T09:00:18;101019.13;;;27.25;63.00
23223;BME280;11780;13.904;100.620;2022-10-16T09:02:56;101016.25;;;27.35;63.24
23223;BME280;11780;13.904;100.620;2022-10-16T09:05:54;101026.19;;;27.31;63.37
23223;BME280;11780;13.904;100.620;2022-10-16T09:13:59;101024.84;;;27.29;63.17
23223;BME280;11780;13.904;100.620;2022-10-16T09:16:57;101027.72;;;27.18;63.69
23223;BME280;11780;13.904;100.620;2022-10-16T09:19:36;101040.16;;;27.11;63.87
23223;BME280;11780;13.904;100.620;2022-10-16T09:22:17;101026.56;;;27.25;63.67
23223;BME280;11780;13.904;100.620;2022-10-16T09:24:48;101025.16;;;27.27;63.71
23223;BME280;11780;13.904;100.620;2022-10-16T09:27:20;101035.63;;;27.20;63.91
23223;BME280;11780;13.904;100.620;2022-10-16T09:29:52;101034.78;;;27.25;64.13
23223;BME280;11780;13.904;100.620;2022-10-16T09:32:28;101039.16;;;27.26;64.18
23223;BME280;11780;13.904;100.620;2022-10-16T09:34:59;101039.16;;;27.26;63.67
23223;BME280;11780;13.904;100.620;2022-10-16T09:37:31;101037.84;;;27.18;63.86
23223;BME280;11780;13.904;100.620;2022-10-16T09:40:02;101034.19;;;27.28;64.23
23223;BME280;11780;13.904;100.620;2022-10-16T09:42:35;101038.34;;;27.25;63.72
23223;BME280;11780;13.904;100.620;2022-10-16T09:45:20;101045.44;;;27.31;63.96
23223;BME280;11780;13.904;100.620;2022-10-16T09:47:53;101038.28;;;27.30;64.09
23223;BME280;11780;13.904;100.620;2022-10-16T09:50:27;101044.56;;;27.36;63.76
23223;BME280;11780;13.904;100.620;2022-10-16T09:53:05;101046.47;;;27.35;63.78
23223;BME280;11780;13.904;100.620;2022-10-16T09:55:47;101042.69;;;27.31;63.90
23223;BME280;11780;13.904;100.620;2022-10-16T09:58:17;101052.72;;;27.17;63.64
23223;BME280;11780;13.904;100.620;2022-10-16T10:00:51;101053.72;;;27.26;64.04
23223;BME280;11780;13.904;100.620;2022-10-16T10:06:58;101051.31;;;27.19;63.86
23223;BME280;11780;13.904;100.620;2022-10-16T10:09:40;101060.44;;;27.15;64.00
23223;BME280;11780;13.904;100.620;2022-10-16T10:12:19;101056.03;;;27.14;63.83
23223;BME280;11780;13.904;100.620;2022-10-16T10:15:06;101065.94;;;27.15;63.97
23223;BME280;11780;13.904;100.620;2022-10-16T10:17:52;101070.81;;;27.18;63.59
23223;BME280;11780;13.904;100.620;2022-10-16T10:20:36;101078.06;;;27.09;63.64
23223;BME280;11780;13.904;100.620;2022-10-16T10:23:35;101076.91;;;27.15;63.67
23223;BME280;11780;13.904;100.620;2022-10-16T10:26:16;101079.34;;;27.16;63.84
23223;BME280;11780;13.904;100.620;2022-10-16T10:29:18;101084.03;;;27.16;63.51
23223;BME280;11780;13.904;100.620;2022-10-16T10:32:52;101087.25;;;27.23;63.90
23223;BME280;11780;13.904;100.620;2022-10-16T10:35:16;101090.00;;;27.23;63.96
23223;BME280;11780;13.904;100.620;2022-10-16T10:43:45;101098.31;;;27.42;63.73
23223;BME280;11780;13.904;100.620;2022-10-16T10:46:35;101102.28;;;27.31;63.75
23223;BME280;11780;13.904;100.620;2022-10-16T10:57:25;101112.34;;;27.41;63.37
23223;BME280;11780;13.904;100.620;2022-10-16T11:11:07;101133.22;;;27.47;63.17
23223;BME280;11780;13.904;100.620;2022-10-16T11:16:52;101138.69;;;27.47;63.21
23223;BME280;11780;13.904;100.620;2022-10-16T11:22:27;101152.38;;;27.52;63.41
23223;BME280;11780;13.904;100.620;2022-10-16T11:25:13;101150.72;;;27.51;63.83
23223;BME280;11780;13.904;100.620;2022-10-16T11:28:02;101151.56;;;27.52;63.24
23223;BME280;11780;13.904;100.620;2022-10-16T11:31:02;101161.16;;;27.54;63.28
23223;BME280;11780;13.904;100.620;2022-10-16T11:36:45;101162.22;;;27.58;63.32
23223;BME280;11780;13.904;100.620;2022-10-16T11:39:27;101161.69;;;27.56;63.18
23223;BME280;11780;13.904;100.620;2022-10-16T11:44:45;101164.78;;;27.49;63.40
23223;BME280;11780;13.904;100.620;2022-10-16T11:47:39;101162.78;;;27.55;63.26
23223;BME280;11780;13.904;100.620;2022-10-16T11:53:31;101176.00;;;27.53;63.66
23223;BME280;11780;13.904;100.620;2022-10-16T11:56:06;101186.44;;;27.51;64.17
23223;BME280;11780;13.904;100.620;2022-10-16T11:58:38;101186.97;;;27.53;63.85
23223;BME280;11780;13.904;100.620;2022-10-16T12:01:35;101191.94;;;27.51;64.04
23223;BME280;11780;13.904;100.620;2022-10-16T12:09:32;101198.06;;;27.43;64.30
23223;BME280;11780;13.904;100.620;2022-10-16T12:12:38;101213.94;;;27.51;64.05
23223;BME280;11780;13.904;100.620;2022-10-16T12:15:26;101216.44;;;27.47;64.12
23223;BME280;11780;13.904;100.620;2022-10-16T12:18:24;101213.13;;;27.50;64.30
23223;BME280;11780;13.904;100.620;2022-10-16T12:21:03;101222.16;;;27.51;63.83
23223;BME280;11780;13.904;100.620;2022-10-16T12:23:58;101217.97;;;27.59;64.16
23223;BME280;11780;13.904;100.620;2022-10-16T12:26:32;101227.59;;;27.61;64.25
23223;BME280;11780;13.904;100.620;2022-10-16T12:35:29;101252.25;;;27.66;64.27
23223;BME280;11780;13.904;100.620;2022-10-16T12:38:19;101263.22;;;27.72;64.89
23223;BME280;11780;13.904;100.620;2022-10-16T12:41:05;101256.31;;;27.74;64.74
23223;BME280;11780;13.904;100.620;2022-10-16T12:48:44;101265.63;;;27.78;64.73
23223;BME280;11780;13.904;100.620;2022-10-16T12:54:12;101275.28;;;27.76;65.36
23223;BME280;11780;13.904;100.620;2022-10-16T13:06:07;101290.59;;;27.82;65.33
23223;BME280;11780;13.904;100.620;2022-10-16T14:19:03;101380.31;;;27.23;67.21
23223;BME280;11780;13.904;100.620;2022-10-16T14:21:37;101380.56;;;27.26;67.42
23223;BME280;11780;13.904;100.620;2022-10-16T14:24:22;101380.56;;;27.31;67.41
23223;BME280;11780;13.904;100.620;2022-10-16T14:26:55;101379.94;;;27.40;67.28
23223;BME280;11780;13.904;100.620;2022-10-16T14:29:28;101383.78;;;27.44;67.08
23223;BME280;11780;13.904;100.620;2022-10-16T14:32:04;101384.28;;;27.51;66.77
23223;BME280;11780;13.904;100.620;2022-10-16T14:34:37;101380.72;;;27.56;66.57
23223;BME280;11780;13.904;100.620;2022-10-16T14:37:26;101374.06;;;27.62;66.51
23223;BME280;11780;13.904;100.620;2022-10-16T14:39:58;101378.69;;;27.66;66.47
23223;BME280;11780;13.904;100.620;2022-10-16T14:42:29;101378.13;;;27.70;66.57
23223;BME280;11780;13.904;100.620;2022-10-16T14:45:01;101375.34;;;27.75;66.62
23223;BME280;11780;13.904;100.620;2022-10-16T14:47:31;101379.44;;;27.77;66.48
23223;BME280;11780;13.904;100.620;2022-10-16T14:50:02;101392.31;;;27.82;66.57
23223;BME280;11780;13.904;100.620;2022-10-16T14:52:33;101392.31;;;27.82;66.41
23223;BME280;11780;13.904;100.620;2022-10-16T14:55:04;101382.97;;;27.83;66.31
23223;BME280;11780;13.904;100.620;2022-10-16T14:57:47;101389.53;;;27.87;66.44
23223;BME280;11780;13.904;100.620;2022-10-16T15:00:25;101399.19;;;27.85;66.54
23223;BME280;11780;13.904;100.620;2022-10-16T15:02:56;101393.41;;;27.86;66.53
23223;BME280;11780;13.904;100.620;2022-10-16T15:05:31;101387.59;;;27.88;66.29
23223;BME280;11780;13.904;100.620;2022-10-16T15:08:22;101387.88;;;27.91;66.48
23223;BME280;11780;13.904;100.620;2022-10-16T15:10:59;101385.91;;;27.92;66.67
23223;BME280;11780;13.904;100.620;2022-10-16T15:13:36;101385.66;;;27.93;66.59
23223;BME280;11780;13.904;100.620;2022-10-16T15:16:18;101382.38;;;27.91;66.69
23223;BME280;11780;13.904;100.620;2022-10-16T15:18:58;101387.03;;;27.91;66.66
23223;BME280;11780;13.904;100.620;2022-10-16T15:21:32;101385.66;;;27.93;66.79
23223;BME280;11780;13.904;100.620;2022-10-16T15:24:12;101379.31;;;27.93;66.89
23223;BME280;11780;13.904;100.620;2022-10-16T15:26:54;101378.75;;;27.96;66.91
23223;BME280;11780;13.904;100.620;2022-10-16T15:29:30;101371.03;;;27.98;66.98
23223;BME280;11780;13.904;100.620;2022-10-16T15:32:12;101373.56;;;27.94;67.06
23223;BME280;11780;13.904;100.620;2022-10-16T15:34:44;101374.84;;;28.02;66.97
23223;BME280;11780;13.904;100.620;2022-10-16T15:37:14;101376.22;;;28.00;66.98
23223;BME280;11780;13.904;100.620;2022-10-16T15:39:45;101369.09;;;27.99;67.24
23223;BME280;11780;13.904;100.620;2022-10-16T15:42:16;101378.19;;;27.99;67.14
23223;BME280;11780;13.904;100.620;2022-10-16T15:44:47;101380.09;;;27.99;67.09
23223;BME280;11780;13.904;100.620;2022-10-16T15:47:20;101381.50;;;27.96;67.11
23223;BME280;11780;13.904;100.620;2022-10-16T15:49:51;101378.97;;;28.00;67.28
23223;BME280;11780;13.904;100.620;2022-10-16T15:52:21;101380.66;;;27.95;67.33
23223;BME280;11780;13.904;100.620;2022-10-16T15:54:52;101382.84;;;27.99;67.09
23223;BME280;11780;13.904;100.620;2022-10-16T15:57:23;101381.50;;;27.96;67.13
23223;BME280;11780;13.904;100.620;2022-10-16T15:59:54;101377.91;;;27.95;67.40